createdAt,value
2023-02-03T00:00:43.449Z,2.30
2023-02-03T00:03:11.352Z,1.65
2023-02-03T00:05:39.804Z,3.58
2023-02-03T00:08:09.263Z,5.03
2023-02-03T00:10:39.973Z,4.13
2023-02-03T00:13:09.660Z,2.67
2023-02-03T00:15:37.735Z,1.48
2023-02-03T00:18:06.969Z,1.40
2023-02-03T00:20:34.871Z,3.10
2023-02-03T00:23:06.443Z,1.25
2023-02-03T00:25:34.672Z,4.60
2023-02-03T00:28:02.589Z,1.50
2023-02-03T00:30:31.285Z,4.35
2023-02-03T00:32:59.177Z,4.68
2023-02-03T00:35:28.556Z,0.90
2023-02-03T00:37:57.582Z,1.70
2023-02-03T00:40:27.934Z,2.20
2023-02-03T00:42:55.957Z,2.85
2023-02-03T00:45:23.859Z,10.80
2023-02-03T00:47:51.725Z,2.17
2023-02-03T00:50:19.703Z,2.47
2023-02-03T00:52:49.013Z,1.33
2023-02-03T00:55:17.109Z,1.38
2023-02-03T00:57:44.968Z,0.98
2023-02-03T01:00:13.988Z,1.13
2023-02-03T01:02:41.864Z,1.00
2023-02-03T01:05:09.904Z,1.45
2023-02-03T01:07:38.018Z,1.75
2023-02-03T01:10:08.236Z,1.63
2023-02-03T01:12:36.157Z,1.42
2023-02-03T01:15:04.595Z,0.95
2023-02-03T01:17:32.453Z,5.22
2023-02-03T01:20:00.350Z,0.90
2023-02-03T01:22:30.331Z,1.10
2023-02-03T01:24:58.242Z,2.45
2023-02-03T01:27:27.684Z,1.63
2023-02-03T01:29:55.519Z,3.13
2023-02-03T01:32:23.364Z,2.70
2023-02-03T01:34:51.199Z,4.90
2023-02-03T01:37:19.139Z,3.15
2023-02-03T01:39:46.981Z,5.63
2023-02-03T01:42:15.926Z,4.70
2023-02-03T01:44:47.670Z,5.43
2023-02-03T01:47:27.373Z,3.65
2023-02-03T01:50:00.085Z,4.35
2023-02-03T01:52:29.864Z,1.90
2023-02-03T01:55:01.740Z,6.80
2023-02-03T01:57:36.572Z,2.60
2023-02-03T02:00:07.964Z,2.53
2023-02-03T02:02:36.408Z,3.70
2023-02-03T02:05:08.341Z,2.97
2023-02-03T02:07:38.644Z,3.22
2023-02-03T02:10:07.544Z,6.88
2023-02-03T02:12:35.429Z,2.85
2023-02-03T02:15:05.350Z,1.67
2023-02-03T02:17:50.367Z,3.30
2023-02-03T02:21:12.709Z,1.85
2023-02-03T02:24:15.064Z,3.20
2023-02-03T02:26:57.451Z,2.33
2023-02-03T02:30:11.493Z,3.17
2023-02-03T02:32:57.345Z,5.40
2023-02-03T02:35:40.562Z,3.97
2023-02-03T02:38:20.868Z,4.93
2023-02-03T02:40:54.091Z,2.53
2023-02-03T02:43:29.324Z,3.13
2023-02-03T02:46:02.871Z,2.55
2023-02-03T02:48:36.734Z,1.67
2023-02-03T02:51:07.703Z,3.13
2023-02-03T02:53:39.173Z,3.47
2023-02-03T02:56:11.725Z,1.90
2023-02-03T02:58:42.634Z,4.95
2023-02-03T03:01:11.253Z,4.55
2023-02-03T03:03:42.882Z,1.27
2023-02-03T03:06:15.201Z,4.55
2023-02-03T03:08:47.019Z,1.92
2023-02-03T03:11:15.371Z,1.83
2023-02-03T03:13:51.874Z,2.03
2023-02-03T03:16:23.778Z,1.63
2023-02-03T03:18:56.340Z,1.10
2023-02-03T03:21:28.848Z,2.92
2023-02-03T03:24:00.713Z,1.00
2023-02-03T03:26:35.117Z,2.90
2023-02-03T03:29:11.387Z,1.13
2023-02-03T03:31:40.808Z,2.88
2023-02-03T03:34:11.947Z,1.40
2023-02-03T03:36:45.960Z,0.95
2023-02-03T03:39:21.548Z,2.05
2023-02-03T03:41:57.488Z,1.75
2023-02-03T03:44:30.626Z,0.68
2023-02-03T03:47:06.824Z,1.90
2023-02-03T03:49:37.461Z,1.08
2023-02-03T03:52:10.290Z,3.03
2023-02-03T03:54:39.264Z,0.80
2023-02-03T03:57:15.425Z,2.58
2023-02-03T03:59:47.934Z,1.95
2023-02-03T04:02:18.169Z,1.55
2023-02-03T04:04:49.189Z,1.85
2023-02-03T04:07:17.312Z,1.02
2023-02-03T04:09:45.193Z,1.08
2023-02-03T04:12:22.678Z,0.95
2023-02-03T04:14:50.822Z,0.98
2023-02-03T04:17:20.106Z,3.88
2023-02-03T04:19:49.877Z,1.17
2023-02-03T04:22:17.723Z,5.75
2023-02-03T04:24:45.594Z,2.35
2023-02-03T04:27:13.450Z,1.15
2023-02-03T04:29:41.271Z,1.30
2023-02-03T04:32:09.319Z,0.95
2023-02-03T04:34:37.195Z,1.23
2023-02-03T04:37:06.408Z,1.60
2023-02-03T04:39:34.207Z,3.05
2023-02-03T04:42:02.036Z,1.55
2023-02-03T04:44:29.950Z,2.58
2023-02-03T04:46:57.799Z,1.10
2023-02-03T04:49:25.630Z,1.40
2023-02-03T04:51:53.531Z,2.22
2023-02-03T04:54:22.773Z,1.92
2023-02-03T04:56:50.604Z,2.72
2023-02-03T04:59:18.449Z,2.67
2023-02-03T05:01:46.324Z,2.28
2023-02-03T05:04:14.405Z,1.60
2023-02-03T05:06:42.243Z,1.33
2023-02-03T05:09:10.071Z,1.20
2023-02-03T05:11:39.359Z,4.53
2023-02-03T05:14:07.422Z,2.85
2023-02-03T05:16:35.328Z,2.75
2023-02-03T05:19:03.306Z,2.20
2023-02-03T05:21:31.796Z,1.73
2023-02-03T05:24:00.314Z,2.50
2023-02-03T05:26:28.190Z,1.83
2023-02-03T05:28:57.806Z,1.92
2023-02-03T05:31:25.954Z,3.42
2023-02-03T05:33:54.093Z,2.67
2023-02-03T05:36:21.955Z,1.55
2023-02-03T05:38:50.737Z,3.20
2023-02-03T05:41:36.048Z,1.38
2023-02-03T05:44:05.535Z,1.98
2023-02-03T05:46:33.397Z,3.83
2023-02-03T05:49:01.230Z,1.90
2023-02-03T05:51:29.326Z,1.27
2023-02-03T05:53:57.189Z,4.38
2023-02-03T05:56:25.290Z,1.48
2023-02-03T05:58:53.698Z,1.45
2023-02-03T06:01:22.958Z,2.70
2023-02-03T06:03:50.982Z,6.25
2023-02-03T06:06:19.067Z,2.00
2023-02-03T06:08:46.951Z,2.13
2023-02-03T06:11:15.201Z,1.65
2023-02-03T06:13:43.026Z,2.22
2023-02-03T06:16:10.962Z,1.23
2023-02-03T06:18:40.211Z,2.17
2023-02-03T06:21:08.345Z,1.13
2023-02-03T06:23:36.198Z,1.40
2023-02-03T06:26:04.036Z,1.77
2023-02-03T06:28:33.469Z,1.73
2023-02-03T06:31:01.688Z,2.80
2023-02-03T06:33:29.597Z,2.55
2023-02-03T06:35:59.026Z,3.15
2023-02-03T06:38:26.956Z,2.65
2023-02-03T06:40:54.784Z,1.17
2023-02-03T06:43:22.627Z,1.83
2023-02-03T06:45:50.528Z,1.10
2023-02-03T06:48:18.412Z,2.60
2023-02-03T06:50:48.635Z,2.95
2023-02-03T06:53:18.290Z,1.48
2023-02-03T06:55:47.761Z,1.67
2023-02-03T06:58:15.762Z,2.05
2023-02-03T07:00:43.646Z,2.15
2023-02-03T07:03:11.515Z,5.80
2023-02-03T07:05:40.691Z,11.20
2023-02-03T07:08:08.623Z,1.58
2023-02-03T07:10:37.801Z,3.00
2023-02-03T07:13:07.087Z,2.53
2023-02-03T07:15:35.509Z,8.23
2023-02-03T07:18:03.473Z,3.17
2023-02-03T07:20:32.872Z,3.65
2023-02-03T07:23:00.994Z,2.70
2023-02-03T07:25:28.881Z,4.85
2023-02-03T07:27:58.133Z,3.67
2023-02-03T07:30:26.450Z,3.45
2023-02-03T07:32:54.736Z,6.22
2023-02-03T07:35:22.673Z,4.97
2023-02-03T07:37:50.532Z,6.15
2023-02-03T07:40:18.990Z,8.70
2023-02-03T07:42:48.984Z,5.93
2023-02-03T07:45:19.492Z,4.43
2023-02-03T07:47:47.362Z,4.45
2023-02-03T07:50:15.240Z,4.65
2023-02-03T07:52:43.094Z,4.82
2023-02-03T07:55:10.994Z,7.82
2023-02-03T07:57:43.288Z,6.38
2023-02-03T08:00:12.827Z,6.00
2023-02-03T08:02:42.089Z,3.67
2023-02-03T08:05:11.206Z,5.90
2023-02-03T08:07:39.230Z,2.63
2023-02-03T08:10:08.108Z,5.95
2023-02-03T08:12:36.299Z,4.07
2023-02-03T08:15:04.656Z,5.07
2023-02-03T08:17:33.415Z,6.38
2023-02-03T08:20:02.646Z,4.50
2023-02-03T08:22:30.495Z,5.78
2023-02-03T08:24:58.326Z,6.10
2023-02-03T08:27:26.245Z,5.00
2023-02-03T08:29:54.073Z,3.70
2023-02-03T08:32:23.380Z,4.90
2023-02-03T08:34:51.623Z,3.05
2023-02-03T08:37:24.327Z,5.30
2023-02-03T08:39:52.466Z,4.45
2023-02-03T08:42:20.755Z,3.58
2023-02-03T08:44:49.209Z,4.82
2023-02-03T08:47:17.491Z,3.97
2023-02-03T08:49:45.578Z,4.40
2023-02-03T08:52:14.377Z,2.67
2023-02-03T08:54:43.795Z,12.02
2023-02-03T08:57:11.828Z,3.85
2023-02-03T08:59:41.568Z,2.45
2023-02-03T09:02:14.346Z,2.42
2023-02-03T09:04:42.173Z,4.28
2023-02-03T09:07:10.165Z,4.93
2023-02-03T09:09:38.092Z,7.35
2023-02-03T09:12:08.358Z,5.50
2023-02-03T09:14:36.672Z,4.50
2023-02-03T09:17:08.129Z,4.10
2023-02-03T09:19:36.854Z,4.07
2023-02-03T09:22:04.752Z,5.65
2023-02-03T09:24:32.614Z,2.33
2023-02-03T09:27:01.650Z,4.50
2023-02-03T09:29:30.878Z,3.15
2023-02-03T09:32:00.004Z,3.05
2023-02-03T09:34:28.136Z,3.92
2023-02-03T09:36:56.044Z,6.22
2023-02-03T09:39:23.892Z,1.77
2023-02-03T09:42:25.651Z,3.13
2023-02-03T09:45:03.889Z,4.78
2023-02-03T09:47:37.511Z,2.65
2023-02-03T09:50:08.394Z,3.92
2023-02-03T09:52:39.719Z,4.03
2023-02-03T09:55:21.642Z,4.50
2023-02-03T09:57:57.019Z,3.33
2023-02-03T10:00:31.617Z,1.83
2023-02-03T10:03:04.940Z,4.28
2023-02-03T10:05:50.698Z,2.63
2023-02-03T10:08:29.347Z,1.60
2023-02-03T10:11:11.726Z,5.68
2023-02-03T10:13:48.914Z,1.83
2023-02-03T10:16:34.284Z,2.97
2023-02-03T10:19:08.189Z,2.20
2023-02-03T10:21:38.621Z,1.13
2023-02-03T10:24:11.845Z,2.70
2023-02-03T10:26:40.521Z,1.75
2023-02-03T10:29:19.469Z,2.65
2023-02-03T10:31:49.328Z,2.83
2023-02-03T10:34:19.698Z,1.98
2023-02-03T10:36:56.991Z,3.05
2023-02-03T10:39:46.105Z,1.70
2023-02-03T10:42:14.851Z,1.42
2023-02-03T10:44:46.801Z,2.15
2023-02-03T10:47:29.101Z,1.83
2023-02-03T10:49:58.915Z,1.20
2023-02-03T10:52:30.301Z,1.52
2023-02-03T10:54:59.364Z,2.60
2023-02-03T10:57:30.333Z,1.23
2023-02-03T11:00:08.040Z,3.08
2023-02-03T11:02:38.049Z,2.53
2023-02-03T11:05:20.966Z,1.55
2023-02-03T11:07:49.483Z,1.08
2023-02-03T11:10:34.648Z,0.50
2023-02-03T11:13:19.847Z,2.80
2023-02-03T11:15:56.733Z,0.50
2023-02-03T11:18:45.962Z,1.13
2023-02-03T11:21:17.848Z,1.25
2023-02-03T11:23:56.071Z,0.80
2023-02-03T11:26:28.203Z,0.93
2023-02-03T11:28:59.118Z,3.78
2023-02-03T11:31:28.862Z,1.35
2023-02-03T11:34:01.140Z,0.52
2023-02-03T11:36:31.057Z,0.57
2023-02-03T11:39:19.675Z,1.30
2023-02-03T11:41:48.655Z,1.02
2023-02-03T11:44:29.306Z,1.10
2023-02-03T11:47:01.419Z,1.10
2023-02-03T11:50:03.925Z,0.50
2023-02-03T11:52:56.942Z,0.80
2023-02-03T11:55:34.907Z,0.70
2023-02-03T11:58:24.280Z,0.63
2023-02-03T12:01:00.419Z,0.50
2023-02-03T12:03:53.854Z,2.40
2023-02-03T12:06:57.109Z,0.55
2023-02-03T12:09:33.095Z,1.38
2023-02-03T12:12:20.473Z,0.77
2023-02-03T12:14:58.391Z,0.73
2023-02-03T12:17:47.153Z,0.60
2023-02-03T12:23:03.796Z,0.75
2023-02-03T12:25:40.573Z,2.85
2023-02-03T12:28:32.908Z,1.55
2023-02-03T12:31:06.742Z,0.70
2023-02-03T12:33:43.421Z,1.15
2023-02-03T12:36:16.435Z,0.77
2023-02-03T12:38:51.963Z,2.38
2023-02-03T12:41:23.487Z,1.05
2023-02-03T12:43:54.015Z,3.95
2023-02-03T12:46:25.704Z,1.55
2023-02-03T12:48:59.584Z,1.17
2023-02-03T12:51:34.824Z,1.58
2023-02-03T12:54:10.184Z,0.60
2023-02-03T12:56:42.954Z,0.40
2023-02-03T12:59:16.664Z,1.13
2023-02-03T13:01:50.487Z,1.50
2023-02-03T13:04:27.167Z,1.20
2023-02-03T13:07:01.509Z,3.15
2023-02-03T13:09:37.863Z,1.25
2023-02-03T13:12:11.627Z,0.82
2023-02-03T13:14:43.608Z,0.88
2023-02-03T13:17:19.223Z,0.75
2023-02-03T13:19:51.129Z,1.98
2023-02-03T13:22:19.785Z,0.70
2023-02-03T13:24:54.007Z,0.93
2023-02-03T13:27:35.026Z,0.75
2023-02-03T13:30:23.281Z,0.70
2023-02-03T13:33:36.648Z,1.38
2023-02-03T13:36:16.430Z,0.70
2023-02-03T13:39:02.601Z,1.30
2023-02-03T13:41:39.048Z,1.35
2023-02-03T13:44:12.805Z,1.77
2023-02-03T13:46:41.338Z,0.82
2023-02-03T13:49:09.929Z,0.65
2023-02-03T13:51:45.553Z,2.97
2023-02-03T13:54:18.356Z,3.22
2023-02-03T13:56:56.533Z,0.98
2023-02-03T13:59:40.646Z,2.60
2023-02-03T14:02:42.855Z,1.67
2023-02-03T14:05:40.544Z,1.08
2023-02-03T14:08:54.191Z,0.80
2023-02-03T14:11:42.087Z,0.93
2023-02-03T14:14:47.627Z,0.80
2023-02-03T14:17:58.389Z,3.13
2023-02-03T14:20:45.004Z,0.90
2023-02-03T14:23:17.781Z,2.78
2023-02-03T14:25:50.290Z,1.48
2023-02-03T14:28:21.248Z,1.35
2023-02-03T14:31:12.539Z,0.95
2023-02-03T14:33:52.434Z,0.60
2023-02-03T14:36:41.729Z,2.03
2023-02-03T14:39:41.143Z,2.20
2023-02-03T14:44:52.199Z,2.83
2023-02-03T14:47:28.134Z,1.85
2023-02-03T14:50:10.708Z,2.30
2023-02-03T14:52:55.385Z,1.20
2023-02-03T14:55:38.760Z,1.42
2023-02-03T14:58:17.559Z,5.15
2023-02-03T15:00:45.463Z,1.60
2023-02-03T15:03:31.836Z,1.15
2023-02-03T15:06:02.973Z,1.63
2023-02-03T15:08:42.174Z,4.22
2023-02-03T15:11:23.775Z,0.77
2023-02-03T15:13:52.097Z,1.20
2023-02-03T15:16:22.586Z,0.63
2023-02-03T15:18:56.484Z,0.82
2023-02-03T15:21:24.802Z,2.05
2023-02-03T15:23:54.767Z,1.45
2023-02-03T15:26:24.483Z,1.23
2023-02-03T15:28:56.807Z,1.98
2023-02-03T15:31:31.807Z,1.02
2023-02-03T15:34:05.730Z,1.25
2023-02-03T15:36:39.479Z,1.65
2023-02-03T15:39:18.640Z,1.48
2023-02-03T15:41:49.163Z,1.30
2023-02-03T15:44:27.484Z,1.88
2023-02-03T15:46:59.002Z,2.95
2023-02-03T15:49:30.314Z,1.08
2023-02-03T15:52:02.901Z,1.52
2023-02-03T15:54:41.008Z,3.80
2023-02-03T15:59:42.553Z,2.67
2023-02-03T16:02:18.444Z,1.92
2023-02-03T16:04:47.015Z,2.65
2023-02-03T16:07:19.013Z,1.48
2023-02-03T16:09:48.501Z,1.98
2023-02-03T16:12:19.438Z,2.80
2023-02-03T16:14:47.665Z,1.23
2023-02-03T16:17:28.397Z,1.25
2023-02-03T16:20:25.683Z,1.42
2023-02-03T16:23:06.700Z,2.38
2023-02-03T16:25:36.669Z,1.33
2023-02-03T16:28:32.820Z,2.67
2023-02-03T16:31:21.525Z,2.55
2023-02-03T16:36:58.306Z,1.65
2023-02-03T16:39:45.548Z,3.10
2023-02-03T16:42:35.588Z,2.53
2023-02-03T16:45:21.114Z,3.60
2023-02-03T16:48:06.746Z,1.92
2023-02-03T16:50:51.776Z,1.10
2023-02-03T16:53:21.570Z,1.55
2023-02-03T16:55:50.511Z,4.78
2023-02-03T16:58:19.913Z,4.05
2023-02-03T17:00:49.818Z,1.08
2023-02-03T17:03:20.570Z,2.05
2023-02-03T17:05:49.605Z,2.10
2023-02-03T17:08:19.350Z,1.77
2023-02-03T17:10:48.355Z,1.38
2023-02-03T17:13:17.305Z,2.97
2023-02-03T17:15:48.228Z,2.45
2023-02-03T17:18:17.130Z,4.63
2023-02-03T17:20:46.076Z,1.35
2023-02-03T17:23:16.034Z,1.77
2023-02-03T17:25:48.374Z,2.97
2023-02-03T17:28:16.387Z,2.60
2023-02-03T17:30:45.851Z,2.38
2023-02-03T17:33:13.753Z,2.03
2023-02-03T17:35:42.514Z,1.20
2023-02-03T17:38:11.000Z,4.03
2023-02-03T17:54:31.743Z,1.55
2023-02-03T17:56:59.609Z,1.30
2023-02-03T17:59:27.426Z,3.42
2023-02-03T18:01:56.627Z,1.23
2023-02-03T18:04:24.590Z,3.17
2023-02-03T18:06:53.490Z,1.85
2023-02-03T18:09:22.416Z,6.07
2023-02-03T18:11:50.338Z,2.50
2023-02-03T18:14:18.222Z,2.47
2023-02-03T18:16:46.254Z,2.67
2023-02-03T18:19:16.971Z,2.42
2023-02-03T18:21:45.370Z,3.40
2023-02-03T18:24:14.604Z,4.25
2023-02-03T18:26:49.025Z,1.83
2023-02-03T18:29:17.024Z,3.92
2023-02-03T18:31:45.144Z,2.50
2023-02-03T18:34:14.578Z,5.35
2023-02-03T18:36:42.492Z,3.58
2023-02-03T18:39:12.410Z,2.10
2023-02-03T18:41:40.748Z,1.30
2023-02-03T18:44:08.736Z,1.30
2023-02-03T18:46:36.575Z,1.02
2023-02-03T18:49:04.446Z,1.42
2023-02-03T18:51:33.712Z,3.85
2023-02-03T18:54:03.386Z,1.48
2023-02-03T18:56:35.214Z,1.40
2023-02-03T18:59:06.009Z,1.60
2023-02-03T19:01:34.334Z,1.40
2023-02-03T19:04:03.982Z,1.60
2023-02-03T19:06:34.865Z,1.52
2023-02-03T19:09:05.369Z,1.20
2023-02-03T19:11:33.834Z,2.03
2023-02-03T19:14:01.722Z,3.22
2023-02-03T19:16:29.561Z,2.47
2023-02-03T19:18:57.402Z,2.35
2023-02-03T19:21:25.277Z,2.03
2023-02-03T19:23:54.561Z,1.60
2023-02-03T19:26:22.421Z,2.28
2023-02-03T19:28:50.841Z,1.40
2023-02-03T19:31:18.926Z,1.63
2023-02-03T19:33:46.853Z,1.48
2023-02-03T19:36:14.690Z,1.80
2023-02-03T19:38:42.534Z,2.70
2023-02-03T19:41:12.581Z,1.60
2023-02-03T19:43:40.976Z,1.52
2023-02-03T19:46:09.301Z,2.08
2023-02-03T19:48:37.326Z,2.97
2023-02-03T19:51:05.470Z,2.53
2023-02-03T19:53:33.399Z,2.00
2023-02-03T19:56:01.235Z,2.22
2023-02-03T19:58:30.654Z,2.00
2023-02-03T20:00:58.520Z,3.90
2023-02-03T20:03:26.597Z,1.48
2023-02-03T20:05:54.443Z,2.85
2023-02-03T20:08:22.396Z,2.00
2023-02-03T20:10:51.490Z,1.35
2023-02-03T20:13:19.651Z,3.35
2023-02-03T20:15:49.358Z,1.98
2023-02-03T20:18:17.605Z,1.48
2023-02-03T20:20:45.764Z,1.80
2023-02-03T20:23:13.912Z,3.50
2023-02-03T20:25:42.644Z,2.75
2023-02-03T20:28:10.933Z,1.20
2023-02-03T20:30:40.041Z,1.88
2023-02-03T20:33:09.442Z,1.80
2023-02-03T20:35:38.307Z,2.10
2023-02-03T20:38:06.514Z,2.28
2023-02-03T20:40:34.634Z,1.60
2023-02-03T20:43:07.596Z,1.90
2023-02-03T20:45:35.422Z,1.02
2023-02-03T20:48:03.228Z,1.05
2023-02-03T20:50:41.988Z,1.60
2023-02-03T20:53:14.600Z,2.85
2023-02-03T20:55:42.825Z,1.00
2023-02-03T20:58:18.755Z,0.70
2023-02-03T21:00:47.603Z,2.20
2023-02-03T21:03:35.151Z,1.73
2023-02-03T21:06:12.718Z,0.60
2023-02-03T21:08:40.610Z,0.77
2023-02-03T21:11:11.968Z,0.60
2023-02-03T21:13:41.374Z,0.60
2023-02-03T21:16:17.277Z,1.08
2023-02-03T21:18:48.557Z,0.50
2023-02-03T21:21:24.726Z,0.70
2023-02-03T21:23:53.882Z,0.73
2023-02-03T21:26:23.906Z,0.68
2023-02-03T21:28:54.433Z,1.25
2023-02-03T21:31:25.787Z,0.68
2023-02-03T21:33:55.113Z,0.70
2023-02-03T21:36:26.536Z,1.27
2023-02-03T21:38:56.676Z,0.60
2023-02-03T21:41:25.773Z,1.13
2023-02-03T21:43:55.647Z,1.10
2023-02-03T21:46:26.560Z,1.25
2023-02-03T21:48:55.724Z,1.65
2023-02-03T21:51:26.661Z,5.53
2023-02-03T21:53:56.683Z,1.70
2023-02-03T21:56:26.705Z,2.08
2023-02-03T21:58:57.506Z,3.97
2023-02-03T22:01:26.585Z,3.17
2023-02-03T22:03:55.732Z,2.67
2023-02-03T22:06:27.062Z,3.80
2023-02-03T22:08:56.301Z,4.32
2023-02-03T22:11:25.787Z,9.55
2023-02-03T22:13:53.911Z,4.25
2023-02-03T22:16:22.408Z,4.75
2023-02-03T22:18:51.315Z,9.40
2023-02-03T22:21:19.304Z,8.95
2023-02-03T22:23:49.222Z,6.13
2023-02-03T22:26:17.574Z,7.30
2023-02-03T22:28:46.233Z,7.78
2023-02-03T22:31:14.782Z,7.82
2023-02-03T22:33:43.194Z,5.35
2023-02-03T22:36:11.587Z,10.30
2023-02-03T22:38:40.471Z,7.18
2023-02-03T22:41:11.820Z,8.55
2023-02-03T22:43:40.010Z,5.55
2023-02-03T22:46:08.378Z,6.20
2023-02-03T22:48:36.508Z,9.68
2023-02-03T22:51:04.933Z,7.75
2023-02-03T22:53:34.601Z,5.47
2023-02-03T22:56:02.571Z,8.10
2023-02-03T22:58:31.774Z,5.57
2023-02-03T23:00:59.707Z,7.38
2023-02-03T23:03:27.701Z,6.88
2023-02-03T23:05:56.417Z,7.10
2023-02-03T23:08:24.283Z,7.95
2023-02-03T23:10:52.114Z,7.97
2023-02-03T23:13:19.963Z,8.10
2023-02-03T23:15:49.356Z,8.98
2023-02-03T23:18:17.245Z,7.70
2023-02-03T23:20:45.075Z,8.98
2023-02-03T23:23:14.103Z,9.93
2023-02-03T23:25:41.945Z,6.35
2023-02-03T23:28:09.835Z,6.07
2023-02-03T23:30:37.920Z,9.52
2023-02-03T23:33:07.993Z,7.72
2023-02-03T23:35:47.350Z,9.25
2023-02-03T23:38:15.847Z,6.97
2023-02-03T23:40:44.383Z,6.35
2023-02-03T23:43:12.236Z,6.97
2023-02-03T23:45:40.091Z,7.15
2023-02-03T23:48:09.324Z,7.05
2023-02-03T23:50:37.270Z,6.43
2023-02-03T23:53:05.114Z,5.97
2023-02-03T23:55:32.926Z,5.07
2023-02-03T23:58:00.785Z,9.55
